< < Back
Terminal Aerodrome Forecast


Current Version              Previous Versions:   1  2  3  4  5  6  7  8  9  

Terminal Aerodrome Forecast

665
FTUS44 KMRX 011120
TAFCHA
TAF
KCHA 011120Z 0112/0212 02004KT P6SM FEW250=

Latest METAR

142
SAUS80 KWBC 020100
MTRCHA
METAR KCHA 020053Z 00000KT 10SM SCT120 BKN250 19/03 A3006 RMK AO2 SLP176
T01940028


USA.gov is the U.S. government's official web portal to all federal, state and local government web resources and services.